createdAt,value
2023-05-06T00:01:29.416Z,14.30
2023-05-06T00:03:56.499Z,14.30
2023-05-06T00:06:23.653Z,14.20
2023-05-06T00:08:50.823Z,14.20
2023-05-06T00:11:19.086Z,14.20
2023-05-06T00:13:46.115Z,14.20
2023-05-06T00:16:13.280Z,14.20
2023-05-06T00:18:41.251Z,14.10
2023-05-06T00:21:08.273Z,14.10
2023-05-06T00:23:35.399Z,14.10
2023-05-06T00:26:02.609Z,14.10
2023-05-06T00:28:29.583Z,14.10
2023-05-06T00:30:56.556Z,14.10
2023-05-06T00:33:23.694Z,14.10
2023-05-06T00:35:52.194Z,14.10
2023-05-06T00:38:20.291Z,14.10
2023-05-06T00:40:47.246Z,14.10
2023-05-06T00:43:14.446Z,14.10
2023-05-06T00:45:41.487Z,14.10
2023-05-06T00:48:08.562Z,14.10
2023-05-06T00:50:35.774Z,14.10
2023-05-06T00:53:04.295Z,14.10
2023-05-06T00:55:31.735Z,14.20
2023-05-06T00:57:58.787Z,14.20
2023-05-06T01:00:26.537Z,14.20
2023-05-06T01:02:53.697Z,14.20
2023-05-06T01:05:24.533Z,14.30
2023-05-06T01:08:23.715Z,14.30
2023-05-06T01:10:57.758Z,14.30
2023-05-06T01:13:36.011Z,14.30
2023-05-06T01:16:04.228Z,14.30
2023-05-06T01:18:32.760Z,14.30
2023-05-06T01:21:00.021Z,14.30
2023-05-06T01:23:27.011Z,14.30
2023-05-06T01:25:53.980Z,14.30
2023-05-06T01:28:21.001Z,14.30
2023-05-06T01:31:15.776Z,14.40
2023-05-06T01:34:00.405Z,14.40
2023-05-06T01:36:46.415Z,14.40
2023-05-06T01:39:25.845Z,14.40
2023-05-06T01:41:53.948Z,14.40
2023-05-06T01:44:22.569Z,14.40
2023-05-06T01:46:50.035Z,14.40
2023-05-06T01:49:17.338Z,14.40
2023-05-06T01:51:48.235Z,14.40
2023-05-06T01:54:15.186Z,14.40
2023-05-06T01:56:42.298Z,14.40
2023-05-06T01:59:09.327Z,14.40
2023-05-06T02:01:36.380Z,14.50
2023-05-06T02:04:03.856Z,14.40
2023-05-06T02:06:30.969Z,14.50
2023-05-06T02:08:58.019Z,14.50
2023-05-06T02:11:25.009Z,14.50
2023-05-06T02:13:52.024Z,14.50
2023-05-06T02:16:21.435Z,14.40
2023-05-06T02:18:48.680Z,14.40
2023-05-06T02:21:15.728Z,14.40
2023-05-06T02:23:42.777Z,14.30
2023-05-06T02:26:12.234Z,14.20
2023-05-06T02:28:39.306Z,14.20
2023-05-06T02:31:06.350Z,14.20
2023-05-06T02:33:33.471Z,14.10
2023-05-06T02:36:00.412Z,14.10
2023-05-06T02:38:27.701Z,14.00
2023-05-06T02:40:54.647Z,13.90
2023-05-06T02:43:23.232Z,13.90
2023-05-06T02:45:50.545Z,13.90
2023-05-06T02:48:17.521Z,13.90
2023-05-06T02:50:45.000Z,13.80
2023-05-06T02:53:13.408Z,13.80
2023-05-06T02:55:40.656Z,13.80
2023-05-06T02:58:07.816Z,13.70
2023-05-06T03:00:34.910Z,13.60
2023-05-06T03:03:02.024Z,13.60
2023-05-06T03:05:28.930Z,13.60
2023-05-06T03:07:56.523Z,13.60
2023-05-06T03:10:23.665Z,13.60
2023-05-06T03:12:50.788Z,13.50
2023-05-06T03:15:17.883Z,13.50
2023-05-06T03:17:47.678Z,13.50
2023-05-06T03:20:17.308Z,13.40
2023-05-06T03:22:44.326Z,13.40
2023-05-06T03:25:13.790Z,13.40
2023-05-06T03:27:41.000Z,13.30
2023-05-06T03:30:08.666Z,13.30
2023-05-06T03:32:35.911Z,13.20
2023-05-06T03:35:03.090Z,13.20
2023-05-06T03:37:30.868Z,13.20
2023-05-06T03:39:57.812Z,13.10
2023-05-06T03:42:24.759Z,13.10
2023-05-06T03:44:51.749Z,13.00
2023-05-06T03:47:20.076Z,13.00
2023-05-06T03:49:47.009Z,13.00
2023-05-06T03:52:14.125Z,13.00
2023-05-06T03:54:41.148Z,12.90
2023-05-06T03:57:08.265Z,13.00
2023-05-06T03:59:35.281Z,12.90
2023-05-06T04:02:02.357Z,12.90
2023-05-06T04:04:30.048Z,12.90
2023-05-06T04:06:57.272Z,12.90
2023-05-06T04:09:24.349Z,12.90
2023-05-06T04:11:51.591Z,12.90
2023-05-06T04:14:20.274Z,12.90
2023-05-06T04:16:47.653Z,12.90
2023-05-06T04:19:14.666Z,12.90
2023-05-06T04:21:41.575Z,12.90
2023-05-06T04:24:08.708Z,12.90
2023-05-06T04:26:35.802Z,12.90
2023-05-06T04:29:02.877Z,13.00
2023-05-06T04:31:30.004Z,13.00
2023-05-06T04:33:56.996Z,13.00
2023-05-06T04:36:24.026Z,13.00
2023-05-06T04:38:52.833Z,13.00
2023-05-06T04:41:23.788Z,13.00
2023-05-06T04:43:50.887Z,13.00
2023-05-06T04:46:18.008Z,12.90
2023-05-06T04:48:47.703Z,13.00
2023-05-06T04:51:17.285Z,13.00
2023-05-06T04:53:44.280Z,13.00
2023-05-06T04:56:11.463Z,13.00
2023-05-06T04:58:38.529Z,13.10
2023-05-06T05:01:08.163Z,13.10
2023-05-06T05:03:41.349Z,13.10
2023-05-06T05:06:08.357Z,13.20
2023-05-06T05:08:35.322Z,13.20
2023-05-06T05:11:02.317Z,13.20
2023-05-06T05:13:29.478Z,13.20
2023-05-06T05:15:56.480Z,13.30
2023-05-06T05:18:23.489Z,13.30
2023-05-06T05:20:50.509Z,13.30
2023-05-06T05:23:17.499Z,13.40
2023-05-06T05:25:44.468Z,13.40
2023-05-06T05:28:11.449Z,13.40
2023-05-06T05:30:38.412Z,13.50
2023-05-06T05:33:05.532Z,13.60
2023-05-06T05:35:32.498Z,13.60
2023-05-06T05:37:59.457Z,13.60
2023-05-06T05:40:26.405Z,13.70
2023-05-06T05:42:53.406Z,13.80
2023-05-06T05:45:21.305Z,13.80
2023-05-06T05:47:48.307Z,13.90
2023-05-06T05:50:15.400Z,13.90
2023-05-06T05:52:42.446Z,13.90
2023-05-06T05:55:09.987Z,14.00
2023-05-06T05:57:37.135Z,14.00
2023-05-06T06:00:05.964Z,14.10
2023-05-06T06:02:34.705Z,14.10
2023-05-06T06:05:01.776Z,14.10
2023-05-06T06:07:28.846Z,14.20
2023-05-06T06:09:56.209Z,14.30
2023-05-06T06:12:23.600Z,14.30
2023-05-06T06:14:50.956Z,14.40
2023-05-06T06:17:18.012Z,14.50
2023-05-06T06:19:48.127Z,14.50
2023-05-06T06:22:15.152Z,14.60
2023-05-06T06:24:45.223Z,14.70
2023-05-06T06:27:51.510Z,14.70
2023-05-06T06:30:21.632Z,14.80
2023-05-06T06:33:20.954Z,14.90
2023-05-06T06:36:07.068Z,14.90
2023-05-06T07:09:24.653Z,15.50
2023-05-06T07:10:09.009Z,15.30
2023-05-06T07:11:51.931Z,15.60
2023-05-06T07:14:25.993Z,15.80
2023-05-06T07:16:53.297Z,15.90
2023-05-06T07:19:51.731Z,15.90
2023-05-06T07:22:16.966Z,16.10
2023-05-06T07:24:44.048Z,16.20
2023-05-06T07:27:11.179Z,16.30
2023-05-06T07:29:41.331Z,16.40
2023-05-06T07:32:08.564Z,16.50
2023-05-06T07:34:36.196Z,16.50
2023-05-06T07:37:04.209Z,16.60
2023-05-06T07:39:31.413Z,16.80
2023-05-06T07:41:58.554Z,16.90
2023-05-06T07:44:32.873Z,17.00
2023-05-06T07:46:59.948Z,17.10
2023-05-06T07:49:28.989Z,17.10
2023-05-06T07:51:56.095Z,17.20
2023-05-06T07:54:23.381Z,17.20
2023-05-06T07:56:50.320Z,17.20
2023-05-06T07:59:17.260Z,17.30
2023-05-06T08:01:44.270Z,17.30
2023-05-06T08:04:11.300Z,17.30
2023-05-06T08:06:38.390Z,17.40
2023-05-06T08:09:05.444Z,17.40
2023-05-06T08:11:32.699Z,17.50
2023-05-06T08:13:59.785Z,17.40
2023-05-06T08:16:29.197Z,17.40
2023-05-06T08:18:56.313Z,17.40
2023-05-06T08:21:23.460Z,17.50
2023-05-06T08:23:50.451Z,17.50
2023-05-06T08:26:18.190Z,17.40
2023-05-06T08:28:54.660Z,17.40
2023-05-06T08:31:21.771Z,17.40
2023-05-06T08:33:48.848Z,17.40
2023-05-06T08:36:16.192Z,17.40
2023-05-06T08:38:52.378Z,17.30
2023-05-06T08:41:21.698Z,17.30
2023-05-06T08:43:49.926Z,17.30
2023-05-06T08:46:18.128Z,17.30
2023-05-06T08:48:45.953Z,17.30
2023-05-06T08:51:14.857Z,17.20
2023-05-06T08:53:50.738Z,17.10
2023-05-06T08:56:17.700Z,17.10
2023-05-06T08:58:46.201Z,17.00
2023-05-06T09:01:15.438Z,17.00
2023-05-06T09:03:42.451Z,17.10
2023-05-06T09:06:09.416Z,17.10
2023-05-06T09:08:36.681Z,17.20
2023-05-06T09:11:03.623Z,17.30
2023-05-06T09:13:33.580Z,17.40
2023-05-06T09:16:00.682Z,17.40
2023-05-06T09:18:30.098Z,17.40
2023-05-06T09:20:58.804Z,17.50
2023-05-06T09:23:29.755Z,17.50
2023-05-06T09:25:59.233Z,17.40
2023-05-06T09:28:28.928Z,17.30
2023-05-06T09:30:56.036Z,17.30
2023-05-06T09:33:23.200Z,17.20
2023-05-06T09:38:31.791Z,17.10
2023-05-06T09:40:58.977Z,17.10
2023-05-06T09:43:26.014Z,17.10
2023-05-06T09:45:56.319Z,17.10
2023-05-06T09:48:23.276Z,17.10
2023-05-06T09:50:50.676Z,17.10
2023-05-06T09:53:18.100Z,17.10
2023-05-06T09:55:45.093Z,17.10
2023-05-06T09:58:13.309Z,17.10
2023-05-06T10:00:40.918Z,17.10
2023-05-06T10:03:08.232Z,17.10
2023-05-06T10:05:35.904Z,17.10
2023-05-06T10:08:04.500Z,17.10
2023-05-06T10:10:31.763Z,17.10
2023-05-06T10:12:58.760Z,17.10
2023-05-06T10:15:25.834Z,17.10
2023-05-06T10:17:53.030Z,17.10
2023-05-06T10:20:22.653Z,17.10
2023-05-06T10:22:59.625Z,17.10
2023-05-06T10:25:37.591Z,17.00
2023-05-06T10:28:16.064Z,17.00
2023-05-06T10:30:46.373Z,17.00
2023-05-06T10:33:13.345Z,17.00
2023-05-06T10:36:02.049Z,16.90
2023-05-06T10:38:41.206Z,16.90
2023-05-06T10:41:08.311Z,16.80
2023-05-06T10:43:35.820Z,16.80
2023-05-06T10:46:26.092Z,16.80
2023-05-06T10:49:22.990Z,16.80
2023-05-06T10:52:12.293Z,16.80
2023-05-06T10:54:54.387Z,16.80
2023-05-06T10:57:27.571Z,16.80
2023-05-06T10:59:57.568Z,16.80
2023-05-06T11:02:25.624Z,16.90
2023-05-06T11:04:53.281Z,16.90
2023-05-06T11:07:23.781Z,17.00
2023-05-06T11:09:54.294Z,17.00
2023-05-06T11:12:22.051Z,16.90
2023-05-06T11:14:49.045Z,16.90
2023-05-06T11:17:32.428Z,17.00
2023-05-06T11:20:18.954Z,17.00
2023-05-06T11:22:46.021Z,17.00
2023-05-06T11:25:13.075Z,17.00
2023-05-06T11:27:40.082Z,17.00
2023-05-06T11:30:07.776Z,16.90
2023-05-06T11:32:34.756Z,16.90
2023-05-06T11:35:01.735Z,16.80
2023-05-06T11:37:35.515Z,16.80
2023-05-06T11:40:03.917Z,16.70
2023-05-06T11:42:32.598Z,16.70
2023-05-06T11:45:02.287Z,16.80
2023-05-06T11:47:29.489Z,16.70
2023-05-06T11:49:56.504Z,16.70
2023-05-06T11:52:23.473Z,16.80
2023-05-06T11:54:52.349Z,16.70
2023-05-06T11:57:36.988Z,16.80
2023-05-06T12:00:05.210Z,16.70
2023-05-06T12:02:33.388Z,16.70
2023-05-06T12:05:00.635Z,16.80
2023-05-06T12:07:27.807Z,16.80
2023-05-06T12:09:54.768Z,16.80
2023-05-06T12:12:25.243Z,16.90
2023-05-06T12:14:56.406Z,16.90
2023-05-06T12:17:24.600Z,16.90
2023-05-06T12:19:51.675Z,16.90
2023-05-06T12:22:22.926Z,17.00
2023-05-06T12:24:50.023Z,17.00
2023-05-06T12:27:33.245Z,17.00
2023-05-06T12:30:02.726Z,17.10
2023-05-06T12:32:30.615Z,17.20
2023-05-06T12:34:58.614Z,17.30
2023-05-06T12:37:35.066Z,17.30
2023-05-06T12:40:02.076Z,17.40
2023-05-06T12:42:29.235Z,17.40
2023-05-06T12:44:56.466Z,17.30
2023-05-06T12:47:25.181Z,17.40
2023-05-06T12:50:02.004Z,17.30
2023-05-06T12:52:30.273Z,17.30
2023-05-06T12:54:57.665Z,17.30
2023-05-06T12:57:24.823Z,17.30
2023-05-06T12:59:52.616Z,17.30
2023-05-06T13:02:20.107Z,17.20
2023-05-06T13:04:47.246Z,17.10
2023-05-06T13:07:14.254Z,17.10
2023-05-06T13:09:41.169Z,17.00
2023-05-06T13:12:08.131Z,17.00
2023-05-06T13:14:36.891Z,17.00
2023-05-06T13:17:07.110Z,17.00
2023-05-06T13:19:34.288Z,16.90
2023-05-06T13:22:04.023Z,16.90
2023-05-06T13:24:34.216Z,16.90
2023-05-06T13:27:01.632Z,16.90
2023-05-06T13:29:29.817Z,16.80
2023-05-06T13:31:57.033Z,16.80
2023-05-06T13:34:24.282Z,16.70
2023-05-06T13:36:52.198Z,16.80
2023-05-06T13:39:20.098Z,16.80
2023-05-06T13:41:50.606Z,16.80
2023-05-06T13:44:18.263Z,16.90
2023-05-06T13:46:48.053Z,17.00
2023-05-06T13:49:15.322Z,17.10
2023-05-06T13:51:42.289Z,17.00
2023-05-06T13:54:09.222Z,17.00
2023-05-06T13:56:36.189Z,16.90
2023-05-06T13:59:03.392Z,16.80
2023-05-06T14:01:30.707Z,16.80
2023-05-06T14:03:57.760Z,16.80
2023-05-06T14:06:24.882Z,16.80
2023-05-06T14:08:58.588Z,16.80
2023-05-06T14:11:25.484Z,16.70
2023-05-06T14:13:56.685Z,16.60
2023-05-06T14:16:23.705Z,16.50
2023-05-06T14:18:50.742Z,16.40
2023-05-06T14:21:17.848Z,16.40
2023-05-06T14:23:44.880Z,16.30
2023-05-06T14:26:11.886Z,16.30
2023-05-06T14:28:38.960Z,16.20
2023-05-06T14:31:06.218Z,16.20
2023-05-06T14:33:33.225Z,16.20
2023-05-06T14:36:03.365Z,16.20
2023-05-06T14:38:30.997Z,16.20
2023-05-06T14:40:59.419Z,16.20
2023-05-06T14:43:26.619Z,16.10
2023-05-06T14:45:53.551Z,16.20
2023-05-06T14:48:25.586Z,16.10
2023-05-06T14:50:52.682Z,16.10
2023-05-06T14:53:22.448Z,16.10
2023-05-06T14:55:52.417Z,16.20
2023-05-06T14:58:19.906Z,16.20
2023-05-06T15:00:47.175Z,16.20
2023-05-06T15:03:14.168Z,16.20
2023-05-06T15:05:41.432Z,16.20
2023-05-06T15:08:10.219Z,16.20
2023-05-06T15:10:37.261Z,16.30
2023-05-06T15:13:04.289Z,16.30
2023-05-06T15:15:31.221Z,16.30
2023-05-06T15:17:58.299Z,16.40
2023-05-06T15:20:25.475Z,16.40
2023-05-06T15:22:52.747Z,16.40
2023-05-06T15:25:33.313Z,16.40
2023-05-06T15:28:59.032Z,16.40
2023-05-06T15:31:28.805Z,16.40
2023-05-06T15:33:57.296Z,16.40
2023-05-06T15:36:29.035Z,16.40
2023-05-06T15:39:00.134Z,16.40
2023-05-06T15:41:31.541Z,16.50
2023-05-06T15:44:01.299Z,16.50
2023-05-06T15:46:31.714Z,16.50
2023-05-06T15:51:31.851Z,16.40
2023-05-06T15:54:08.178Z,16.40
2023-05-06T15:56:44.956Z,16.40
2023-05-06T16:00:12.087Z,16.40
2023-05-06T16:02:46.820Z,16.40
2023-05-06T16:05:14.213Z,16.30
2023-05-06T16:07:46.969Z,16.30
2023-05-06T16:10:16.163Z,16.40
2023-05-06T16:12:43.355Z,16.40
2023-05-06T16:15:10.924Z,16.40
2023-05-06T16:17:38.496Z,16.40
2023-05-06T16:20:12.185Z,16.30
2023-05-06T16:22:40.101Z,16.40
2023-05-06T16:25:07.422Z,16.40
2023-05-06T16:27:34.435Z,16.40
2023-05-06T16:30:01.656Z,16.40
2023-05-06T16:32:28.805Z,16.40
2023-05-06T16:34:55.868Z,16.40
2023-05-06T16:37:22.885Z,16.30
2023-05-06T16:39:50.218Z,16.40
2023-05-06T16:42:17.430Z,16.30
2023-05-06T16:44:48.274Z,16.30
2023-05-06T16:47:17.640Z,16.30
2023-05-06T16:49:44.820Z,16.30
2023-05-06T16:52:13.191Z,16.30
2023-05-06T16:54:40.313Z,16.30
2023-05-06T16:57:07.687Z,16.30
2023-05-06T16:59:38.033Z,16.30
2023-05-06T17:02:06.355Z,16.20
2023-05-06T17:04:33.743Z,16.20
2023-05-06T17:07:01.602Z,16.20
2023-05-06T17:09:38.929Z,16.10
2023-05-06T17:12:10.457Z,16.10
2023-05-06T17:14:38.119Z,16.10
2023-05-06T17:17:08.809Z,16.10
2023-05-06T17:19:39.397Z,16.10
2023-05-06T17:22:27.707Z,16.10
2023-05-06T17:25:23.978Z,16.10
2023-05-06T17:27:54.378Z,16.10
2023-05-06T17:30:21.515Z,16.00
2023-05-06T17:32:48.708Z,16.10
2023-05-06T17:35:23.486Z,16.10
2023-05-06T17:38:15.608Z,16.10
2023-05-06T17:40:48.516Z,16.10
2023-05-06T17:43:15.765Z,16.10
2023-05-06T17:45:45.358Z,16.10
2023-05-06T17:48:12.609Z,16.00
2023-05-06T17:50:42.360Z,16.00
2023-05-06T17:53:13.001Z,16.00
2023-05-06T17:55:45.728Z,16.00
2023-05-06T17:58:12.879Z,16.10
2023-05-06T18:00:43.179Z,16.00
2023-05-06T18:03:15.786Z,16.10
2023-05-06T18:05:42.943Z,16.10
2023-05-06T18:08:10.158Z,16.10
2023-05-06T18:10:41.968Z,16.10
2023-05-06T18:13:15.213Z,16.10
2023-05-06T18:15:45.025Z,16.10
2023-05-06T18:18:14.588Z,16.10
2023-05-06T18:20:42.250Z,16.00
2023-05-06T18:23:09.563Z,16.10
2023-05-06T18:25:36.713Z,16.00
2023-05-06T18:28:08.171Z,16.00
2023-05-06T18:30:35.368Z,16.00
2023-05-06T18:33:06.592Z,16.00
2023-05-06T18:35:33.826Z,16.00
2023-05-06T18:38:01.077Z,16.00
2023-05-06T18:43:37.314Z,16.00
2023-05-06T18:46:05.595Z,16.00
2023-05-06T18:48:39.029Z,16.00
2023-05-06T18:51:16.348Z,16.00
2023-05-06T18:53:47.108Z,16.00
2023-05-06T18:56:14.294Z,15.90
2023-05-06T18:58:41.407Z,15.90
2023-05-06T19:01:10.044Z,15.90
2023-05-06T19:03:37.720Z,15.90
2023-05-06T19:06:07.728Z,15.90
2023-05-06T19:08:35.005Z,15.90
2023-05-06T19:11:02.317Z,15.90
2023-05-06T19:13:29.528Z,15.80
2023-05-06T19:15:57.368Z,15.80
2023-05-06T19:18:25.136Z,15.80
2023-05-06T19:20:53.375Z,15.80
2023-05-06T19:23:23.803Z,15.80
2023-05-06T19:26:11.541Z,15.80
2023-05-06T19:28:39.850Z,15.80
2023-05-06T19:31:24.902Z,15.70
2023-05-06T19:33:52.220Z,15.70
2023-05-06T19:36:20.759Z,15.70
2023-05-06T19:38:47.999Z,15.70
2023-05-06T19:41:24.305Z,15.70
2023-05-06T19:43:51.630Z,15.70
2023-05-06T19:46:21.039Z,15.70
2023-05-06T19:48:48.190Z,15.70
2023-05-06T19:51:15.334Z,15.70
2023-05-06T19:53:42.325Z,15.70
2023-05-06T19:56:15.623Z,15.70
2023-05-06T19:58:42.610Z,15.70
2023-05-06T20:01:09.855Z,15.70
2023-05-06T20:03:37.134Z,15.70
2023-05-06T20:06:04.429Z,15.70
2023-05-06T20:08:31.490Z,15.70
2023-05-06T20:10:58.553Z,15.80
2023-05-06T20:13:26.150Z,15.80
2023-05-06T20:15:54.149Z,15.70
2023-05-06T20:18:23.653Z,15.70
2023-05-06T20:20:50.654Z,15.70
2023-05-06T20:23:17.645Z,15.70
2023-05-06T20:26:09.547Z,15.70
2023-05-06T20:28:37.884Z,15.70
2023-05-06T20:31:05.969Z,15.70
2023-05-06T20:33:33.312Z,15.70
2023-05-06T20:36:00.436Z,15.70
2023-05-06T20:38:27.478Z,15.70
2023-05-06T20:40:54.555Z,15.70
2023-05-06T20:43:21.688Z,15.70
2023-05-06T20:45:48.881Z,15.70
2023-05-06T20:48:16.014Z,15.70
2023-05-06T20:50:43.022Z,15.70
2023-05-06T20:53:10.484Z,15.70
2023-05-06T20:55:44.204Z,15.70
2023-05-06T21:01:31.085Z,15.70
2023-05-06T21:03:59.210Z,15.70
2023-05-06T21:06:27.041Z,15.70
2023-05-06T21:08:54.199Z,15.70
2023-05-06T21:19:01.122Z,15.70
2023-05-06T21:21:38.195Z,15.70
2023-05-06T21:24:05.675Z,15.60
2023-05-06T21:26:32.953Z,15.60
2023-05-06T21:29:00.068Z,15.70
2023-05-06T21:31:27.368Z,15.60
2023-05-06T21:33:55.662Z,15.70
2023-05-06T21:36:22.802Z,15.70
2023-05-06T21:39:10.485Z,15.70
2023-05-06T21:41:37.714Z,15.70
2023-05-06T21:44:05.217Z,15.70
2023-05-06T21:46:32.705Z,15.70
2023-05-06T21:48:59.967Z,15.70
2023-05-06T21:51:28.085Z,15.70
2023-05-06T21:53:58.200Z,15.70
2023-05-06T21:56:25.323Z,15.70
2023-05-06T21:58:53.658Z,15.70
2023-05-06T22:01:20.846Z,15.70
2023-05-06T22:03:48.254Z,15.70
2023-05-06T22:06:15.883Z,15.70
2023-05-06T22:08:42.942Z,15.70
2023-05-06T22:11:10.282Z,15.70
2023-05-06T22:13:48.725Z,15.60
2023-05-06T22:16:15.809Z,15.70
2023-05-06T22:18:42.959Z,15.60
2023-05-06T22:21:10.085Z,15.60
2023-05-06T22:23:40.626Z,15.60
2023-05-06T22:26:07.874Z,15.60
2023-05-06T22:28:35.080Z,15.60
2023-05-06T22:31:02.180Z,15.60
2023-05-06T22:33:29.136Z,15.60
2023-05-06T22:35:59.061Z,15.60
2023-05-06T22:38:26.066Z,15.60
2023-05-06T22:40:53.199Z,15.60
2023-05-06T22:43:25.855Z,15.60
2023-05-06T22:45:52.989Z,15.60
2023-05-06T22:48:25.589Z,15.60
2023-05-06T22:50:52.981Z,15.60
2023-05-06T22:53:26.069Z,15.50
2023-05-06T22:55:53.185Z,15.50
2023-05-06T22:58:20.225Z,15.50
2023-05-06T23:00:48.254Z,15.50
2023-05-06T23:03:20.204Z,15.50
2023-05-06T23:05:47.410Z,15.50
2023-05-06T23:08:14.608Z,15.50
2023-05-06T23:10:41.733Z,15.50
2023-05-06T23:13:12.289Z,15.50
2023-05-06T23:15:40.163Z,15.50
2023-05-06T23:18:07.377Z,15.40
2023-05-06T23:20:34.520Z,15.40
2023-05-06T23:23:01.445Z,15.40
2023-05-06T23:25:28.695Z,15.40
2023-05-06T23:27:55.746Z,15.40
2023-05-06T23:30:22.703Z,15.40
2023-05-06T23:32:49.900Z,15.30
2023-05-06T23:35:20.596Z,15.30
2023-05-06T23:37:49.248Z,15.30
2023-05-06T23:40:16.928Z,15.30
2023-05-06T23:42:43.901Z,15.30
2023-05-06T23:45:12.032Z,15.30
2023-05-06T23:47:39.263Z,15.30
2023-05-06T23:50:07.021Z,15.30
2023-05-06T23:52:34.027Z,15.30
2023-05-06T23:55:01.063Z,15.30
2023-05-06T23:57:28.238Z,15.30
2023-05-06T23:59:55.245Z,15.30
